createdAt,value
2022-08-21T00:00:49.995Z,8.32
2022-08-21T00:05:52.905Z,8.68
2022-08-21T00:10:55.419Z,10.00
2022-08-21T00:15:58.656Z,10.77
2022-08-21T00:21:02.270Z,9.90
2022-08-21T00:26:05.145Z,10.63
2022-08-21T00:31:10.766Z,11.00
2022-08-21T00:36:14.174Z,10.75
2022-08-21T00:41:37.139Z,12.18
2022-08-21T00:46:40.249Z,10.52
2022-08-21T00:51:53.161Z,11.90
2022-08-21T00:56:59.576Z,12.52
2022-08-21T01:02:05.771Z,10.90
2022-08-21T01:07:08.980Z,12.93
2022-08-21T01:12:12.756Z,12.85
2022-08-21T01:17:16.800Z,14.10
2022-08-21T01:22:21.153Z,13.63
2022-08-21T01:27:23.698Z,13.40
2022-08-21T01:32:26.418Z,13.85
2022-08-21T01:37:29.018Z,9.98
2022-08-21T01:42:32.071Z,10.10
2022-08-21T01:52:46.871Z,13.45
2022-08-21T02:02:54.862Z,11.35
2022-08-21T02:08:01.640Z,10.82
2022-08-21T02:13:04.829Z,8.25
2022-08-21T02:18:08.612Z,10.10
2022-08-21T02:23:13.962Z,9.32
2022-08-21T02:28:17.065Z,11.07
2022-08-21T02:33:22.019Z,9.45
2022-08-21T02:38:27.529Z,10.38
2022-08-21T02:43:32.783Z,11.60
2022-08-21T02:48:36.186Z,12.00
2022-08-21T02:53:41.037Z,8.70
2022-08-21T02:58:48.306Z,8.40
2022-08-21T03:03:53.538Z,9.68
2022-08-21T03:08:56.099Z,8.35
2022-08-21T03:14:03.657Z,7.13
2022-08-21T03:19:18.699Z,6.13
2022-08-21T03:24:21.364Z,6.35
2022-08-21T03:29:26.746Z,6.68
2022-08-21T03:34:31.891Z,6.93
2022-08-21T03:39:36.938Z,5.90
2022-08-21T03:44:40.862Z,4.78
2022-08-21T03:49:45.620Z,4.55
2022-08-21T03:54:54.121Z,4.68
2022-08-21T04:00:00.328Z,5.00
2022-08-21T04:05:04.750Z,4.78
2022-08-21T04:10:09.300Z,3.60
2022-08-21T04:20:24.639Z,4.25
2022-08-21T04:25:40.997Z,4.30
2022-08-21T04:30:44.454Z,4.22
2022-08-21T04:35:50.482Z,3.67
2022-08-21T04:40:55.705Z,4.15
2022-08-21T04:45:59.009Z,3.78
2022-08-21T04:51:33.852Z,3.85
2022-08-21T04:57:34.239Z,4.13
2022-08-21T05:03:23.668Z,3.40
2022-08-21T05:08:52.769Z,3.92
2022-08-21T05:14:28.424Z,2.88
2022-08-21T05:19:33.882Z,3.10
2022-08-21T05:24:42.039Z,3.17
2022-08-21T05:29:49.476Z,3.20
2022-08-21T05:35:00.214Z,3.50
2022-08-21T05:40:21.275Z,2.95
2022-08-21T05:45:42.739Z,2.80
2022-08-21T05:50:51.626Z,3.42
2022-08-21T05:56:03.413Z,2.78
2022-08-21T06:01:15.983Z,3.33
2022-08-21T06:06:19.216Z,3.20
2022-08-21T06:11:24.726Z,3.45
2022-08-21T06:16:34.076Z,3.97
2022-08-21T06:21:39.646Z,3.70
2022-08-21T06:32:05.033Z,3.22
2022-08-21T06:37:08.151Z,3.15
2022-08-21T06:42:16.481Z,3.78
2022-08-21T06:47:20.247Z,3.03
2022-08-21T06:52:27.952Z,3.67
2022-08-21T06:57:58.855Z,3.28
2022-08-21T07:03:20.980Z,3.67
2022-08-21T07:08:27.156Z,3.60
2022-08-21T07:13:30.132Z,5.50
2022-08-21T07:18:33.984Z,3.95
2022-08-21T07:23:45.623Z,3.67
2022-08-21T07:30:01.604Z,4.00
2022-08-21T07:35:18.062Z,4.10
2022-08-21T07:40:32.943Z,3.75
2022-08-21T07:45:43.619Z,4.13
2022-08-21T07:50:46.711Z,4.40
2022-08-21T07:55:54.953Z,4.70
2022-08-21T08:00:57.531Z,4.25
2022-08-21T08:06:00.556Z,3.75
2022-08-21T08:11:04.396Z,4.47
2022-08-21T08:16:07.183Z,5.18
2022-08-21T08:21:11.838Z,3.92
2022-08-21T08:26:14.473Z,4.50
2022-08-21T08:31:17.070Z,4.30
2022-08-21T08:36:21.465Z,4.40
2022-08-21T08:41:30.861Z,4.65
2022-08-21T08:46:37.699Z,4.15
2022-08-21T08:51:43.023Z,4.80
2022-08-21T08:56:46.252Z,4.03
2022-08-21T09:01:48.886Z,4.47
2022-08-21T09:07:06.049Z,5.03
2022-08-21T09:12:15.944Z,4.80
2022-08-21T09:17:50.292Z,5.32
2022-08-21T09:23:11.494Z,4.22
2022-08-21T09:28:15.802Z,5.53
2022-08-21T09:33:18.529Z,4.60
2022-08-21T09:38:35.013Z,4.20
2022-08-21T09:43:38.917Z,5.18
2022-08-21T09:48:50.267Z,4.85
2022-08-21T09:53:57.104Z,18.42
2022-08-21T09:58:59.458Z,18.10
2022-08-21T10:04:32.047Z,23.00
2022-08-21T10:09:34.485Z,13.13
2022-08-21T10:15:00.670Z,11.55
2022-08-21T10:20:18.157Z,18.13
2022-08-21T10:25:23.030Z,13.57
2022-08-21T10:30:36.179Z,12.50
2022-08-21T10:35:52.198Z,11.05
2022-08-21T10:41:14.350Z,10.48
2022-08-21T10:46:43.894Z,11.80
2022-08-21T10:51:56.357Z,14.50
2022-08-21T10:57:03.943Z,12.27
2022-08-21T11:02:24.414Z,13.73
2022-08-21T11:07:34.015Z,18.53
2022-08-21T11:12:44.138Z,12.88
2022-08-21T11:18:04.327Z,13.48
2022-08-21T11:23:21.369Z,17.98
2022-08-21T11:28:37.161Z,16.73
2022-08-21T11:34:04.294Z,13.10
2022-08-21T11:39:21.294Z,12.98
2022-08-21T11:44:50.788Z,16.65
2022-08-21T11:50:29.763Z,15.73
2022-08-21T11:55:58.975Z,17.05
2022-08-21T12:01:14.890Z,15.07
2022-08-21T12:06:24.537Z,10.32
2022-08-21T12:11:29.766Z,21.77
2022-08-21T12:16:42.363Z,12.38
2022-08-21T12:22:00.437Z,10.73
2022-08-21T12:27:33.069Z,9.75
2022-08-21T12:33:27.186Z,8.65
2022-08-21T12:38:50.542Z,11.23
2022-08-21T12:44:03.520Z,7.93
2022-08-21T12:49:22.838Z,10.55
2022-08-21T12:54:33.894Z,10.32
2022-08-21T12:59:47.040Z,10.85
2022-08-21T13:10:13.216Z,8.70
2022-08-21T13:15:16.620Z,11.52
2022-08-21T13:20:25.526Z,5.70
2022-08-21T13:25:31.835Z,9.25
2022-08-21T13:30:35.963Z,7.85
2022-08-21T13:36:05.492Z,7.78
2022-08-21T13:41:29.827Z,7.93
2022-08-21T13:46:35.753Z,11.20
2022-08-21T13:51:38.946Z,5.32
2022-08-21T13:56:47.037Z,5.95
2022-08-21T14:02:00.037Z,5.13
2022-08-21T14:07:16.797Z,4.82
2022-08-21T14:12:28.283Z,5.85
2022-08-21T14:17:35.820Z,4.45
2022-08-21T14:22:50.801Z,4.30
2022-08-21T14:27:56.510Z,7.00
2022-08-21T14:33:02.601Z,5.63
2022-08-21T14:38:15.863Z,3.50
2022-08-21T14:43:20.155Z,3.90
2022-08-21T14:48:22.991Z,3.30
2022-08-21T14:53:26.283Z,3.58
2022-08-21T14:58:30.186Z,3.20
2022-08-21T15:03:35.051Z,3.10
2022-08-21T15:14:49.066Z,3.30
2022-08-21T15:19:52.463Z,3.13
2022-08-21T15:24:54.869Z,3.92
2022-08-21T15:29:57.678Z,3.80
2022-08-21T15:35:01.355Z,3.55
2022-08-21T15:40:04.851Z,3.70
2022-08-21T15:45:22.473Z,3.00
2022-08-21T15:50:25.758Z,2.53
2022-08-21T15:55:29.380Z,2.65
2022-08-21T16:00:33.575Z,2.80
2022-08-21T16:06:01.397Z,2.20
2022-08-21T16:25:05.076Z,10.60
2022-08-21T16:30:11.994Z,17.25
2022-08-21T16:35:17.071Z,3.60
2022-08-21T16:40:25.611Z,2.50
2022-08-21T16:45:33.192Z,2.70
2022-08-21T16:50:38.089Z,2.88
2022-08-21T16:55:43.545Z,3.22
2022-08-21T17:00:46.015Z,5.00
2022-08-21T17:05:48.952Z,3.00
2022-08-21T17:15:55.010Z,4.00
2022-08-21T17:20:57.343Z,2.60
2022-08-21T17:26:00.960Z,2.67
2022-08-21T17:31:10.115Z,2.50
2022-08-21T17:36:13.038Z,2.75
2022-08-21T17:41:16.312Z,41.75
2022-08-21T17:46:27.237Z,5.82
2022-08-21T17:51:30.859Z,3.20
2022-08-21T17:56:38.789Z,2.80
2022-08-21T18:01:43.330Z,3.50
2022-08-21T18:06:50.300Z,3.35
2022-08-21T18:11:59.725Z,2.83
2022-08-21T18:17:02.439Z,2.50
2022-08-21T18:22:08.624Z,2.53
2022-08-21T18:27:18.709Z,4.95
2022-08-21T18:32:30.910Z,5.18
2022-08-21T18:37:34.938Z,4.60
2022-08-21T18:42:43.585Z,3.05
2022-08-21T18:47:58.796Z,3.17
2022-08-21T18:53:01.609Z,3.25
2022-08-21T18:58:14.040Z,5.13
2022-08-21T19:03:25.196Z,6.22
2022-08-21T19:08:29.087Z,8.57
2022-08-21T19:13:46.409Z,9.85
2022-08-21T19:18:54.588Z,9.77
2022-08-21T19:24:09.666Z,7.47
2022-08-21T19:29:21.414Z,7.97
2022-08-21T19:34:40.812Z,5.05
2022-08-21T19:39:49.986Z,5.10
2022-08-21T19:45:13.397Z,4.30
2022-08-21T19:50:17.332Z,4.43
2022-08-21T19:55:23.474Z,4.40
2022-08-21T20:00:26.404Z,4.53
2022-08-21T20:05:39.477Z,4.13
2022-08-21T20:10:45.567Z,4.13
2022-08-21T20:15:49.577Z,4.32
2022-08-21T20:20:52.612Z,4.75
2022-08-21T20:25:56.057Z,4.85
2022-08-21T20:30:58.801Z,4.70
2022-08-21T20:36:04.670Z,5.10
2022-08-21T20:41:17.931Z,5.45
2022-08-21T20:46:29.423Z,5.03
2022-08-21T20:51:46.925Z,5.25
2022-08-21T20:56:56.693Z,5.55
2022-08-21T21:02:36.748Z,5.00
2022-08-21T21:07:51.172Z,5.15
2022-08-21T21:13:18.356Z,5.05
2022-08-21T21:19:10.960Z,4.63
2022-08-21T21:24:27.657Z,4.78
2022-08-21T21:31:18.469Z,5.72
2022-08-21T21:36:33.493Z,5.97
2022-08-21T21:42:37.937Z,5.57
2022-08-21T21:48:05.777Z,5.97
2022-08-21T21:53:30.277Z,5.18
2022-08-21T21:58:46.321Z,6.00
2022-08-21T22:04:03.850Z,6.57
2022-08-21T22:09:43.676Z,6.63
2022-08-21T22:21:02.715Z,6.15
2022-08-21T22:26:08.375Z,6.03
2022-08-21T22:32:07.499Z,6.10
2022-08-21T22:37:41.875Z,5.60
2022-08-21T22:43:20.792Z,5.68
2022-08-21T22:48:25.805Z,5.65
2022-08-21T22:53:36.407Z,5.88
2022-08-21T22:59:05.445Z,5.75
2022-08-21T23:04:22.085Z,6.30
2022-08-21T23:09:28.939Z,5.78
2022-08-21T23:14:32.099Z,5.45
2022-08-21T23:19:55.295Z,6.15
2022-08-21T23:25:21.655Z,5.88
2022-08-21T23:30:53.621Z,5.72
2022-08-21T23:36:33.286Z,5.57
2022-08-21T23:41:53.545Z,5.82
2022-08-21T23:47:26.552Z,5.53
2022-08-21T23:52:55.816Z,6.20
2022-08-21T23:58:07.233Z,6.53
